Big Island, VA (24526)

2:30 AM EDT on July 30, 2016 (GMT -0400)
Hensley Hollow Rd. | | Change Station

Elev 971 ft 37.54 °N, 79.40 °W | Updated 1 second ago

Rain
Rain
71.1 °F
Feels Like 71.1 °F
N
0.0
Wind Variable Wind from East
Gusts 0.0 mph

Today
High -- | Low -- °F
--% Chance of Precip.
Yesterday
High -- | Low -- °F
Precip. -- in
Pressure 29.96 in
Visibility 10.0 miles
Clouds Few 6500 ft
Dew Point 70 °F
Humidity 98%
Rainfall 0.00 in
Snow Depth Not available.
6:20 AM 8:27 PM
Waning Crescent, 15% visible
METAR KLYH 300554Z AUTO 00000KT 10SM FEW065 23/22 A2999 RMK AO2 SLP145 T02280217 10250 20222 50000
Pressure 29.96 in
Visibility 10.0 miles
Clouds Few 6500 ft
Dew Point 70 °F
Humidity 98%
Rainfall 0.00 in
Snow Depth Not available.
6:20 AM 8:27 PM
Waning Crescent, 15% visible
METAR KLYH 300554Z AUTO 00000KT 10SM FEW065 23/22 A2999 RMK AO2 SLP145 T02280217 10250 20222 50000

10-Day Weather Forecast

Almanac

Astronomy

Jul. 30, 2016 Rise Set
Actual Time
Civil Twilight
Nautical Twilight
Astronomical Twilight
Moon
Length of Visible Light
Length of Day
Tomorrow will be .
, % of the Moon is Illuminated

Today's Extremes

State Highs State Lows

Community

WunderPhotos

Upload Photos

1,928,508 photos uploaded!

WunderBlog® & News

Nearby

Air Quality

  Air Quality AQ Index Pollutant
Not available.

Snow Depth

Station Depth Elevation

Earthquake Activity

City Distance Mag. Time & Date
Minimum magnitude displayed is 2.5.

Coastal Water Temperatures

Place Temperature

Stations

Nearby Weather Stations

Station Location Temp. Windchill Dew Point Humidity Wind Precip. Elev Updated Type
                   

Watches & Warnings

There are currently no watches in effect.